Flight Track Log - Related Links

Times and Time Zones

All times are in EST time to prevent confusion due to time zone crossing. See the GGN7280 flight status page for this flight to view local times or setup timezone preferences in your user account.

Time Position Orientation Groundspeed Altitude Reporting Facility
EST Latitude Longitude Course Direction KTS MPH feet Rate Location/Type
Sat 06:33:03 PM 43.6833 -79.6167 200° South 90 104 600  Level Toronto Center
Sat 06:34:03 PM 43.6500 -79.6333 184° South 130 150 2,000 1,300 Climbing Toronto Center
Sat 06:35:03 PM 43.6167 -79.5833 133° Southeast 190 219 3,200 1,050 Climbing Toronto Center
Sat 06:36:03 PM 43.5833 -79.5167 125° Southeast 210 242 4,100 800 Climbing Toronto Center
Sat 06:37:03 PM 43.5500 -79.4500 125° Southeast 230 265 4,800 700 Climbing Toronto Center
Sat 06:38:03 PM 43.5333 -79.3500 103° East 240 276 5,500 950 Climbing Toronto Center
Sat 06:39:03 PM 43.5000 -79.2667 119° Southeast 260 299 6,700 1,250 Climbing Toronto Center
Sat 06:40:03 PM 43.4833 -79.1667 103° East 260 299 8,000 1,250 Climbing Toronto Center
Sat 06:41:03 PM 43.4667 -79.0833 105° East 260 299 9,200 1,200 Climbing Toronto Center
Sat 06:42:03 PM 43.4333 -78.9667 111° Southeast 270 311 10,400 900 Climbing Toronto Center
Sat 06:43:03 PM 43.4167 -78.8833 105° East 270 311 11,000 300 Climbing Toronto Center
Sat 06:44:03 PM 43.3833 -78.7667 111° Southeast 290 334 11,000  Level Toronto Center
Sat 06:45:03 PM 43.3667 -78.6500 101° East 310 357 11,000 62 Level Toronto Center
Sat 06:45:40 PM 43.3536 -78.6233 124° Southeast 308 354 11,100 61 Climbing Cleveland Center
Sat 06:46:41 PM 43.3269 -78.5094 108° East 310 357 11,100  Level Cleveland Center
Sat 06:47:42 PM 43.2994 -78.3958 108° East 314 361 11,100  Level Cleveland Center
Sat 06:47:49 PM 43.2903 -78.3675 114° Southeast 314 361 11,100  Level Cleveland Center
Sat 06:48:32 PM 43.2700 -78.2892 110° East 312 359 11,100  Level Cleveland Center
Sat 06:48:44 PM 43.2717 -78.2828 70° East 312 359 11,100  Level Cleveland Center
Sat 06:49:32 PM 43.2408 -78.1706 111° Southeast 309 356 11,100 -98 Level Cleveland Center
Sat 06:49:45 PM 43.2381 -78.1486 100° East 311 358 11,000 -800 Descending Cleveland Center
Sat 06:50:47 PM 43.2286 -78.0272 96° East 318 366 10,100 -1,366 Descending Cleveland Center
Sat 06:51:48 PM 43.2272 -77.9056 91° East 321 369 8,200 -1,907 Descending Cleveland Center
Sat 06:52:34 PM 43.2244 -77.8144 92° East 283 326 6,700 -1,770 Descending Cleveland Center
Sat 06:52:49 PM 43.2258 -77.7969 84° East 293 337 6,400 -1,574 Descending Cleveland Center
Sat 06:53:35 PM 43.2253 -77.7044 90° East 295 339 5,100 -1,548 Descending Cleveland Center
Sat 06:53:51 PM 43.2253 -77.6850 90° East 291 335 4,800 -1,100 Descending Cleveland Center
Sat 06:54:35 PM 43.2150 -77.5972 99° East 273 314 4,000 -787 Descending Cleveland Center
Sat 06:54:52 PM 43.2142 -77.5808 94° East 281 323 4,000 -197 Level Cleveland Center
Sat 06:55:36 PM 43.2056 -77.4989 98° East 247 284 3,800 -492 Descending Cleveland Center
Sat 06:55:53 PM 43.2025 -77.4897 115° Southeast 246 283 3,500 -1,300 Descending Cleveland Center
Sat 06:56:36 PM 43.1675 -77.4833 172° South 124 143 2,500 -1,065 Descending Cleveland Center
Sat 06:56:55 PM 43.1628 -77.4847 192° South 180 207 2,400 -295 Descending Cleveland Center
Sat 06:57:37 PM 43.1378 -77.5131 220° Southwest 127 146 2,200 -295 Descending Cleveland Center
Sat 06:57:56 PM 43.1364 -77.5172 245° Southwest 144 166 2,100 -98 Descending Cleveland Center
Sat 06:58:38 PM 43.1275 -77.5567 253° West 125 144 2,100 -98 Level Cleveland Center
Sat 06:58:57 PM 43.1272 -77.5636 267° West 135 155 2,000 -700 Descending Cleveland Center
Sat 06:59:38 PM 43.1253 -77.6025 266° West 119 137 1,400 -774 Descending Cleveland Center
Sat 06:59:59 PM 43.1242 -77.6178 264° West 125 144 1,200 -590 Descending Cleveland Center
Sat 07:00:39 PM 43.1231 -77.6483 267° West 116 133 800 -492 Descending Cleveland Center
Sat 07:01:00 PM 43.1236 -77.6528 280° West 121 139 700 -286 Descending Cleveland Center

Login

Don't have an account? Register now (free) for customized features, flight alerts, and more!